Flight Track Log - Related Links

Times and Time Zones

All times are in EDT time to prevent confusion due to time zone crossing. See the EMD21 flight status page for this flight to view local times or setup timezone preferences in your user account.

Time Position Orientation Groundspeed Altitude Reporting Facility
EDT Latitude Longitude Course Direction KTS MPH feet Rate Location/Type
Thu 03:17:32 PM 35.4000 -97.6075 27° Northeast 119 137 1,900  Level Fort Worth Center
Thu 03:18:09 PM 35.4175 -97.5967 27° Northeast 114 131 2,700 1,187 Climbing Fort Worth Center
Thu 03:19:03 PM 35.4228 -97.5544 81° East 160 184 3,700 1,231 Climbing Fort Worth Center
Thu 03:20:06 PM 35.4169 -97.4978 97° East 165 190 5,100 1,392 Climbing Fort Worth Center
Thu 03:21:08 PM 35.3958 -97.4447 116° Southeast 170 196 6,600 1,500 Climbing Fort Worth Center
Thu 03:22:10 PM 35.3767 -97.3758 109° East 180 207 8,200 1,161 Climbing Fort Worth Center
Thu 03:23:12 PM 35.3600 -97.3128 108° East 194 223 9,000 372 Climbing Fort Worth Center
Thu 03:24:19 PM 35.3325 -97.2281 112° Southeast 262 302 9,000  Level Fort Worth Center
Thu 03:25:20 PM 35.3047 -97.1378 111° Southeast 270 311 9,000  Level Fort Worth Center
Thu 03:26:18 PM 35.2831 -97.0606 109° East 262 302 9,000  Level Fort Worth Center
Thu 03:27:21 PM 35.2553 -96.9711 111° Southeast 262 302 9,000  Level Fort Worth Center
Thu 03:28:23 PM 35.2308 -96.8881 110° East 261 300 9,000  Level Fort Worth Center
Thu 03:29:25 PM 35.2053 -96.8053 111° Southeast 259 298 9,000  Level Fort Worth Center
Thu 03:30:27 PM 35.1775 -96.7164 111° Southeast 259 298 9,000  Level Fort Worth Center
Thu 03:31:29 PM 35.1511 -96.6328 111° Southeast 260 299 9,000 -194 Level Fort Worth Center
Thu 03:32:31 PM 35.1244 -96.5419 110° East 261 300 8,600 -532 Descending Fort Worth Center
Thu 03:33:33 PM 35.0944 -96.4544 113° Southeast 276 318 7,900 -677 Descending Fort Worth Center
Thu 03:34:35 PM 35.0667 -96.3672 111° Southeast 276 318 7,200 -768 Descending Fort Worth Center
Thu 03:35:38 PM 35.0403 -96.2842 111° Southeast 268 308 6,300 -912 Descending Fort Worth Center
Thu 03:36:40 PM 35.0147 -96.2014 111° Southeast 266 306 5,300 -968 Descending Fort Worth Center

Login

Don't have an account? Register now (free) for customized features, flight alerts, and more!